Dupage Airport
KDPA : rendu visible

Aérodrome :











RETROUVEZ-NOUS SUR...

 
LOGIN :

S'inscrire | Disclaimer

   EN    FR    IT 

 









Légende :    VFR   VFR Marginal   IFR   IFR Intensif   IFR Très Intensif
Visi : 
Plafond : 
>= 8 km
>= 3000ft
5 à 8 km
1000 à 3000 ft
1500m à 5 km
500 à 1000 ft
800 à 1500m
200 à 500 ft
< 800m
< 200 ft
Symboles :   Orages  Brouillard  Fortes neiges  Fortes précipitations  Vent > 20 kt






- Altitude de l'aérodrome : 759 ft


KDPA - Dupage

DERNIER METAR :
  • 121752Z 29010KT 10SM CLR M11/M19 A3049 RMK AO2 SLP340 T11061189 11100 21150 58004

METARs EXPIRÉS :
  • 121652Z 31010KT 10SM CLR M11/M18 A3050 RMK AO2 SLP346 T11111183
  • 121552Z 31010KT 10SM CLR M12/M18 A3050 RMK AO2 SLP343 T11171178

TAF KDPA
Valide du 12 à 18h jusqu'au 13 à 18h UTC


121730Z 1218/1318 30010KT P6SM SKC
FM130000 23005KT P6SM SCT200
FM130900 19011KT P6SM BKN150
FM131400 19016G24KT P6SM OVC150



MET'MAP, la Météo Aéronautique d'un coup d'oeil ! - Copyright ORBIFLY Décembre 2007 - Disclaimer

ORBIFLY MET'MAP TEAM :

Programmation & Développement : Alexandra Zaïnal
Conception & Développement : Baudouin d'Aumeries
Co-Programmation & Développement : Marc-Olivier Méhu
Soutien technique & logistique : Manuel Goepfert

Contact : metmap@orbifly.com




SOURCES & CREDITS :

   NOAA       Earth
Advisory